Terminal Aerodrome Forecast
Issued by NWS

Home | Current Version | Previous Version | Graphics & Text | Print | Product List | Glossary On
Versions: 1 2 3 4 5 6 7 8 9 10 11 12 13 14 15 16 17 18 19 20 21 22 23 24 25 26 27 28 29 30 31 32 33 34 35 36 37 38
903
FTUS43 KLOT 221055 AAC
TAFORD
TAF AMD
KORD 221055Z 2211/2312 VRB02KT 2SM BR SCT003 OVC006
      TEMPO 2211/2212 1/2SM FG VV003
     FM221200 VRB03KT 1/2SM FG VV003
      TEMPO 2212/2215 1/4SM FG VV002
     FM221500 VRB03KT 3/4SM BR OVC003
     FM221600 03006KT 3SM BR OVC006
     FM221900 01009KT P6SM OVC015=

USA.gov is the U.S. government's official web portal to all federal, state and local government web resources and services.